Thunder radar more information blitzortung!


Radar de pluja more information rain snow radar


Visita la nostra xarxa de llocs de meteo:

Template documentation
and downloads

And another site



No particular awareness of the weather is required.    There are no Weather-warnings

Pagina Historial Weather Underground text

Diari Resum Agost 17, 2017 Unitats:  Tant    Imperial   Mètric
« Previous Dia
SegĂźent Dia »
Diari Setmana Mensual Anual Personalitzada
  Maxima: Minima: Media:
Temperatura: 94.5 °F /  34.7 °C 68.2 °F /  20.1 °C 79.3 °F /  26.3 °C
Punt de rosada: 65.3 °F /  18.5 °C 57.6 °F /  14.2 °C 61 °F /  16.1 °C
Humitat: 72 % 34 % 55 %
Wind Speed: 13 mph /  20.9 km/h - 3.4 mph /  5.4 km/h
RĂ fegues de vent: 13 mph /  20.9 km/h - -
Vent:- - SSW
Pression baro: 30.1 in /  1018.8 hPa 30 in /  1014.8 hPa -
Precipitacions: 0 in /  0.0 mm    
Historical Graphs
 
 
Dades de taula per Agost 17, 2017
Temps Temperatura Punt de rosada Pression baro Vent Wind Speed RĂ fegues de vent Humitat Rainfall Rate (Hourly)
00:02 73 °F /  22.8 °C 58.3 °F /  14.6 °C 30.1 in /  1017.8 hPa Calm     60 % 0 in /  0.0 mm
00:07 73 °F /  22.8 °C 58.3 °F /  14.6 °C 30.1 in /  1017.8 hPa Calm     60 % 0 in /  0.0 mm
00:12 73 °F /  22.8 °C 58.3 °F /  14.6 °C 30.1 in /  1017.8 hPa Calm     60 % 0 in /  0.0 mm
00:17 72.9 °F /  22.7 °C 58.3 °F /  14.6 °C 30.1 in /  1017.8 hPa Calm     60 % 0 in /  0.0 mm
00:22 72.9 °F /  22.7 °C 58.3 °F /  14.6 °C 30.1 in /  1017.8 hPa Calm     60 % 0 in /  0.0 mm
00:27 72.7 °F /  22.6 °C 57.9 °F /  14.4 °C 30.1 in /  1017.8 hPa Calm     60 % 0 in /  0.0 mm
00:32 72.7 °F /  22.6 °C 57.9 °F /  14.4 °C 30.1 in /  1017.8 hPa Calm     60 % 0 in /  0.0 mm
00:37 72.7 °F /  22.6 °C 57.9 °F /  14.4 °C 30.1 in /  1017.8 hPa Calm     60 % 0 in /  0.0 mm
00:42 72.5 °F /  22.5 °C 57.7 °F /  14.3 °C 30.1 in /  1017.8 hPa Calm     60 % 0 in /  0.0 mm
00:47 72.5 °F /  22.5 °C 57.7 °F /  14.3 °C 30.1 in /  1017.8 hPa Calm     60 % 0 in /  0.0 mm
00:52 72.5 °F /  22.5 °C 57.7 °F /  14.3 °C 30.1 in /  1017.8 hPa Calm     60 % 0 in /  0.0 mm
00:57 72.5 °F /  22.5 °C 58.3 °F /  14.6 °C 30.1 in /  1017.8 hPa Calm     61 % 0 in /  0.0 mm
01:02 72.3 °F /  22.4 °C 58.1 °F /  14.5 °C 30.1 in /  1017.8 hPa Calm     61 % 0 in /  0.0 mm
01:07 72.3 °F /  22.4 °C 58.1 °F /  14.5 °C 30.1 in /  1017.8 hPa NNW 1.4 mph /  2.3 km/h   61 % 0 in /  0.0 mm
01:12 72.5 °F /  22.5 °C 58.3 °F /  14.6 °C 30.1 in /  1017.8 hPa Calm     61 % 0 in /  0.0 mm
01:17 72.3 °F /  22.4 °C 58.1 °F /  14.5 °C 30.1 in /  1017.8 hPa Calm     61 % 0 in /  0.0 mm
01:22 72.3 °F /  22.4 °C 58.1 °F /  14.5 °C 30.1 in /  1017.8 hPa Calm     61 % 0 in /  0.0 mm
01:27 72.1 °F /  22.3 °C 57.9 °F /  14.4 °C 30.1 in /  1017.8 hPa Calm     61 % 0 in /  0.0 mm
01:32 72.1 °F /  22.3 °C 57.9 °F /  14.4 °C 30.1 in /  1017.8 hPa Calm     61 % 0 in /  0.0 mm
01:37 71.8 °F /  22.1 °C 57.6 °F /  14.2 °C 30.1 in /  1017.8 hPa Calm     61 % 0 in /  0.0 mm
01:42 71.6 °F /  22.0 °C 57.9 °F /  14.4 °C 30.1 in /  1017.8 hPa Calm     62 % 0 in /  0.0 mm
01:47 71.2 °F /  21.8 °C 57.9 °F /  14.4 °C 30.1 in /  1017.8 hPa Calm     63 % 0 in /  0.0 mm
01:52 71.1 °F /  21.7 °C 57.7 °F /  14.3 °C 30.1 in /  1017.8 hPa Calm     63 % 0 in /  0.0 mm
01:57 71.1 °F /  21.7 °C 57.7 °F /  14.3 °C 30.1 in /  1017.8 hPa Calm     63 % 0 in /  0.0 mm
02:02 71.1 °F /  21.7 °C 57.7 °F /  14.3 °C 30.1 in /  1017.8 hPa Calm     63 % 0 in /  0.0 mm
02:07 70.9 °F /  21.6 °C 58.1 °F /  14.5 °C 30.1 in /  1017.8 hPa Calm     64 % 0 in /  0.0 mm
02:12 70.7 °F /  21.5 °C 57.9 °F /  14.4 °C 30.1 in /  1017.8 hPa Calm     64 % 0 in /  0.0 mm
02:17 70.7 °F /  21.5 °C 57.9 °F /  14.4 °C 30.1 in /  1017.8 hPa Calm     64 % 0 in /  0.0 mm
02:22 70.7 °F /  21.5 °C 57.9 °F /  14.4 °C 30.1 in /  1017.8 hPa Calm     64 % 0 in /  0.0 mm
02:27 70.7 °F /  21.5 °C 58.5 °F /  14.7 °C 30.1 in /  1017.8 hPa Calm     65 % 0 in /  0.0 mm
02:32 70.5 °F /  21.4 °C 58.3 °F /  14.6 °C 30.1 in /  1017.8 hPa Calm     65 % 0 in /  0.0 mm
02:37 70.3 °F /  21.3 °C 57.9 °F /  14.4 °C 30.1 in /  1017.8 hPa WSW 1.4 mph /  2.3 km/h 1.4 mph /  2.3 km/h 65 % 0 in /  0.0 mm
02:42 70.3 °F /  21.3 °C 57.9 °F /  14.4 °C 30.1 in /  1017.8 hPa SW 2.3 mph /  3.7 km/h 2.3 mph /  3.7 km/h 65 % 0 in /  0.0 mm
02:47 70.2 °F /  21.2 °C 57.7 °F /  14.3 °C 30.1 in /  1017.8 hPa SW 2.3 mph /  3.7 km/h 2.3 mph /  3.7 km/h 65 % 0 in /  0.0 mm
02:52 70.2 °F /  21.2 °C 57.7 °F /  14.3 °C 30.1 in /  1017.8 hPa SW 2.3 mph /  3.7 km/h 2.3 mph /  3.7 km/h 65 % 0 in /  0.0 mm
02:57 70 °F /  21.1 °C 58.1 °F /  14.5 °C 30.1 in /  1017.8 hPa WSW 2.4 mph /  3.9 km/h 2.4 mph /  3.9 km/h 66 % 0 in /  0.0 mm
03:02 69.8 °F /  21.0 °C 57.9 °F /  14.4 °C 30.1 in /  1017.8 hPa WSW 1.2 mph /  1.9 km/h   66 % 0 in /  0.0 mm
03:07 69.8 °F /  21.0 °C 57.9 °F /  14.4 °C 30.1 in /  1017.8 hPa Calm     66 % 0 in /  0.0 mm
03:08 69.8 °F /  21.0 °C 57.9 °F /  14.4 °C 30.1 in /  1017.8 hPa Calm     66 % 0 in /  0.0 mm
03:13 70.2 °F /  21.2 °C 58.3 °F /  14.6 °C 30.1 in /  1017.8 hPa SW 2.3 mph /  3.7 km/h 2.3 mph /  3.7 km/h 66 % 0 in /  0.0 mm
03:18 70.2 °F /  21.2 °C 58.3 °F /  14.6 °C 30.1 in /  1017.8 hPa Calm     66 % 0 in /  0.0 mm
03:23 70.2 °F /  21.2 °C 58.3 °F /  14.6 °C 30.1 in /  1017.8 hPa SW 1.4 mph /  2.3 km/h 1.4 mph /  2.3 km/h 66 % 0 in /  0.0 mm
03:28 70.2 °F /  21.2 °C 58.3 °F /  14.6 °C 30.1 in /  1017.8 hPa SW 1.2 mph /  1.9 km/h 1.2 mph /  1.9 km/h 66 % 0 in /  0.0 mm
03:33 70 °F /  21.1 °C 58.1 °F /  14.5 °C 30.1 in /  1017.8 hPa Calm     66 % 0 in /  0.0 mm
03:38 70 °F /  21.1 °C 58.5 °F /  14.7 °C 30.1 in /  1017.8 hPa Calm     67 % 0 in /  0.0 mm
03:43 70 °F /  21.1 °C 58.5 °F /  14.7 °C 30.1 in /  1017.8 hPa NNE 1.2 mph /  1.9 km/h 1.2 mph /  1.9 km/h 67 % 0 in /  0.0 mm
03:48 69.8 °F /  21.0 °C 57.9 °F /  14.4 °C 30.1 in /  1017.8 hPa Calm     66 % 0 in /  0.0 mm
03:53 69.8 °F /  21.0 °C 57.9 °F /  14.4 °C 30.1 in /  1017.8 hPa SW 1.2 mph /  1.9 km/h 1.4 mph /  2.3 km/h 66 % 0 in /  0.0 mm
03:58 69.6 °F /  20.9 °C 58.3 °F /  14.6 °C 30.1 in /  1017.8 hPa Calm     67 % 0 in /  0.0 mm
04:03 69.4 °F /  20.8 °C 57.9 °F /  14.4 °C 30.1 in /  1017.8 hPa Calm     67 % 0 in /  0.0 mm
04:08 69.3 °F /  20.7 °C 57.7 °F /  14.3 °C 30.1 in /  1017.8 hPa Calm     67 % 0 in /  0.0 mm
04:13 69.1 °F /  20.6 °C 58.1 °F /  14.5 °C 30.1 in /  1017.8 hPa Calm     68 % 0 in /  0.0 mm
04:18 69.3 °F /  20.7 °C 58.3 °F /  14.6 °C 30.1 in /  1017.8 hPa SW 1.4 mph /  2.3 km/h 1.4 mph /  2.3 km/h 68 % 0 in /  0.0 mm
04:23 69.3 °F /  20.7 °C 58.3 °F /  14.6 °C 30.1 in /  1017.8 hPa Calm     68 % 0 in /  0.0 mm
04:28 69.3 °F /  20.7 °C 58.3 °F /  14.6 °C 30.1 in /  1017.8 hPa Calm     68 % 0 in /  0.0 mm
04:33 69.4 °F /  20.8 °C 58.5 °F /  14.7 °C 30.1 in /  1017.8 hPa SW 1.6 mph /  2.6 km/h 1.6 mph /  2.6 km/h 68 % 0 in /  0.0 mm
04:38 69.4 °F /  20.8 °C 58.5 °F /  14.7 °C 30.1 in /  1017.8 hPa Calm     68 % 0 in /  0.0 mm
04:43 69.6 °F /  20.9 °C 58.6 °F /  14.8 °C 30.1 in /  1017.8 hPa SW 2.3 mph /  3.7 km/h 2.3 mph /  3.7 km/h 68 % 0 in /  0.0 mm
04:48 69.6 °F /  20.9 °C 58.6 °F /  14.8 °C 30.1 in /  1017.8 hPa Calm     68 % 0 in /  0.0 mm
04:53 69.4 °F /  20.8 °C 58.5 °F /  14.7 °C 30.1 in /  1017.8 hPa SW 1.2 mph /  1.9 km/h 1.2 mph /  1.9 km/h 68 % 0 in /  0.0 mm
04:58 69.4 °F /  20.8 °C 58.5 °F /  14.7 °C 30.1 in /  1017.8 hPa Calm     68 % 0 in /  0.0 mm
05:03 69.3 °F /  20.7 °C 58.3 °F /  14.6 °C 30.1 in /  1017.8 hPa Calm     68 % 0 in /  0.0 mm
05:08 69.4 °F /  20.8 °C 58.5 °F /  14.7 °C 30.1 in /  1017.8 hPa Calm     68 % 0 in /  0.0 mm
05:13 69.4 °F /  20.8 °C 58.8 °F /  14.9 °C 30.1 in /  1017.8 hPa Calm     69 % 0 in /  0.0 mm
05:18 69.4 °F /  20.8 °C 58.8 °F /  14.9 °C 30.1 in /  1017.8 hPa Calm     69 % 0 in /  0.0 mm
05:20 69.4 °F /  20.8 °C 58.8 °F /  14.9 °C 30.1 in /  1017.8 hPa Calm     69 % 0 in /  0.0 mm
05:22 69.4 °F /  20.8 °C 58.8 °F /  14.9 °C 30.1 in /  1017.8 hPa Calm     69 % 0 in /  0.0 mm
05:25 69.6 °F /  20.9 °C 59 °F /  15.0 °C 30.1 in /  1017.8 hPa Calm     69 % 0 in /  0.0 mm
05:30 69.6 °F /  20.9 °C 59 °F /  15.0 °C 30.1 in /  1017.8 hPa Calm     69 % 0 in /  0.0 mm
05:32 69.6 °F /  20.9 °C 59 °F /  15.0 °C 30.1 in /  1017.8 hPa Calm     69 % 0 in /  0.0 mm
05:42 69.6 °F /  20.9 °C 59 °F /  15.0 °C 30.1 in /  1017.8 hPa Calm     69 % 0 in /  0.0 mm
05:47 69.6 °F /  20.9 °C 59 °F /  15.0 °C 30.1 in /  1017.8 hPa Calm     69 % 0 in /  0.0 mm
05:52 69.6 °F /  20.9 °C 59.4 °F /  15.2 °C 30.1 in /  1017.8 hPa Calm     70 % 0 in /  0.0 mm
05:57 69.4 °F /  20.8 °C 58.8 °F /  14.9 °C 30.1 in /  1017.8 hPa Calm     69 % 0 in /  0.0 mm
06:02 69.4 °F /  20.8 °C 59.2 °F /  15.1 °C 30.1 in /  1017.8 hPa Calm     70 % 0 in /  0.0 mm
06:07 69.3 °F /  20.7 °C 59.2 °F /  15.1 °C 30.1 in /  1017.8 hPa Calm     70 % 0 in /  0.0 mm
06:12 69.3 °F /  20.7 °C 59.2 °F /  15.1 °C 30.1 in /  1017.8 hPa Calm     70 % 0 in /  0.0 mm
06:17 69.3 °F /  20.7 °C 59.2 °F /  15.1 °C 30.1 in /  1017.8 hPa Calm     70 % 0 in /  0.0 mm
06:22 69.3 °F /  20.7 °C 59.2 °F /  15.1 °C 30.1 in /  1017.8 hPa North 1.4 mph /  2.3 km/h   70 % 0 in /  0.0 mm
06:27 69.1 °F /  20.6 °C 58.8 °F /  14.9 °C 30.1 in /  1017.8 hPa Calm     70 % 0 in /  0.0 mm
06:32 69.1 °F /  20.6 °C 58.8 °F /  14.9 °C 30.1 in /  1018.8 hPa North 1.2 mph /  1.9 km/h 1.2 mph /  1.9 km/h 70 % 0 in /  0.0 mm
06:37 69.1 °F /  20.6 °C 58.8 °F /  14.9 °C 30.1 in /  1018.8 hPa Calm     70 % 0 in /  0.0 mm
06:42 69.1 °F /  20.6 °C 58.8 °F /  14.9 °C 30.1 in /  1018.8 hPa Calm     70 % 0 in /  0.0 mm
06:47 69.1 °F /  20.6 °C 58.8 °F /  14.9 °C 30.1 in /  1017.8 hPa Calm     70 % 0 in /  0.0 mm
06:52 69.1 °F /  20.6 °C 58.8 °F /  14.9 °C 30.1 in /  1017.8 hPa Calm     70 % 0 in /  0.0 mm
06:57 69.1 °F /  20.6 °C 58.8 °F /  14.9 °C 30.1 in /  1017.8 hPa North 1.4 mph /  2.3 km/h 1.4 mph /  2.3 km/h 70 % 0 in /  0.0 mm
07:02 68.9 °F /  20.5 °C 59.2 °F /  15.1 °C 30.1 in /  1017.8 hPa ENE 1.6 mph /  2.6 km/h 1.6 mph /  2.6 km/h 71 % 0 in /  0.0 mm
07:07 68.7 °F /  20.4 °C 58.8 °F /  14.9 °C 30.1 in /  1017.8 hPa SE 1.2 mph /  1.9 km/h 1.2 mph /  1.9 km/h 71 % 0 in /  0.0 mm
07:12 68.5 °F /  20.3 °C 58.8 °F /  14.9 °C 30.1 in /  1017.8 hPa SE 1.2 mph /  1.9 km/h   71 % 0 in /  0.0 mm
07:17 68.5 °F /  20.3 °C 58.8 °F /  14.9 °C 30.1 in /  1017.8 hPa Calm     71 % 0 in /  0.0 mm
07:22 68.2 °F /  20.1 °C 58.5 °F /  14.7 °C 30.1 in /  1017.8 hPa WSW 1.2 mph /  1.9 km/h 1.2 mph /  1.9 km/h 71 % 0 in /  0.0 mm
07:27 68.2 °F /  20.1 °C 58.8 °F /  14.9 °C 30.1 in /  1017.8 hPa Calm     72 % 0 in /  0.0 mm
07:32 68.2 °F /  20.1 °C 58.8 °F /  14.9 °C 30 in /  1016.8 hPa Calm     72 % 0 in /  0.0 mm
07:37 68.4 °F /  20.2 °C 59 °F /  15.0 °C 30 in /  1016.8 hPa Calm     72 % 0 in /  0.0 mm
07:42 68.4 °F /  20.2 °C 59 °F /  15.0 °C 30 in /  1016.8 hPa WSW 1.2 mph /  1.9 km/h 1.2 mph /  1.9 km/h 72 % 0 in /  0.0 mm
07:47 68.4 °F /  20.2 °C 59 °F /  15.0 °C 30 in /  1016.8 hPa SW 2.3 mph /  3.7 km/h 2.3 mph /  3.7 km/h 72 % 0 in /  0.0 mm
07:48 68.4 °F /  20.2 °C 59 °F /  15.0 °C 30 in /  1016.8 hPa SW 1.2 mph /  1.9 km/h 1.2 mph /  1.9 km/h 72 % 0 in /  0.0 mm
07:53 68.4 °F /  20.2 °C 59 °F /  15.0 °C 30 in /  1016.8 hPa South 1.4 mph /  2.3 km/h 1.4 mph /  2.3 km/h 72 % 0 in /  0.0 mm
07:58 68.7 °F /  20.4 °C 59.4 °F /  15.2 °C 30.1 in /  1017.8 hPa SW 2.3 mph /  3.7 km/h 2.3 mph /  3.7 km/h 72 % 0 in /  0.0 mm
08:03 68.9 °F /  20.5 °C 59.5 °F /  15.3 °C 30.1 in /  1017.8 hPa SW 2.3 mph /  3.7 km/h 2.3 mph /  3.7 km/h 72 % 0 in /  0.0 mm
08:08 69.1 °F /  20.6 °C 59.7 °F /  15.4 °C 30.1 in /  1017.8 hPa SW 2.3 mph /  3.7 km/h 2.3 mph /  3.7 km/h 72 % 0 in /  0.0 mm
08:13 69.3 °F /  20.7 °C 59.7 °F /  15.4 °C 30.1 in /  1017.8 hPa SW 2.3 mph /  3.7 km/h 2.3 mph /  3.7 km/h 72 % 0 in /  0.0 mm
08:18 69.6 °F /  20.9 °C 60.3 °F /  15.7 °C 30.1 in /  1017.8 hPa SW 1.2 mph /  1.9 km/h   72 % 0 in /  0.0 mm
08:23 70.2 °F /  21.2 °C 60.6 °F /  15.9 °C 30.1 in /  1017.8 hPa SW 1.4 mph /  2.3 km/h 1.4 mph /  2.3 km/h 72 % 0 in /  0.0 mm
08:28 70.5 °F /  21.4 °C 60.6 °F /  15.9 °C 30 in /  1016.8 hPa SW 2.3 mph /  3.7 km/h 2.3 mph /  3.7 km/h 71 % 0 in /  0.0 mm
08:33 70.7 °F /  21.5 °C 60.8 °F /  16.0 °C 30 in /  1016.8 hPa WSW 2.3 mph /  3.7 km/h 2.3 mph /  3.7 km/h 71 % 0 in /  0.0 mm
08:38 71.1 °F /  21.7 °C 60.8 °F /  16.0 °C 30 in /  1016.8 hPa SW 1.2 mph /  1.9 km/h 1.2 mph /  1.9 km/h 70 % 0 in /  0.0 mm
08:43 71.8 °F /  22.1 °C 61.2 °F /  16.2 °C 30.1 in /  1017.8 hPa Calm     69 % 0 in /  0.0 mm
08:48 73.2 °F /  22.9 °C 62.4 °F /  16.9 °C 30.1 in /  1017.8 hPa SE 1.2 mph /  1.9 km/h   69 % 0 in /  0.0 mm
08:53 73.9 °F /  23.3 °C 62.8 °F /  17.1 °C 30.1 in /  1017.8 hPa ESE 2.3 mph /  3.7 km/h 2.3 mph /  3.7 km/h 68 % 0 in /  0.0 mm
08:58 75.2 °F /  24.0 °C 63.1 °F /  17.3 °C 30.1 in /  1017.8 hPa East 2 mph /  3.2 km/h 2 mph /  3.2 km/h 66 % 0 in /  0.0 mm
09:03 74.7 °F /  23.7 °C 63 °F /  17.2 °C 30.1 in /  1017.8 hPa ENE 2.3 mph /  3.7 km/h 2.3 mph /  3.7 km/h 67 % 0 in /  0.0 mm
09:08 75.2 °F /  24.0 °C 62.6 °F /  17.0 °C 30.1 in /  1017.8 hPa NE 2.3 mph /  3.7 km/h 2.3 mph /  3.7 km/h 65 % 0 in /  0.0 mm
09:13 75.7 °F /  24.3 °C 63.1 °F /  17.3 °C 30.1 in /  1017.8 hPa NNE 2.3 mph /  3.7 km/h 2.3 mph /  3.7 km/h 65 % 0 in /  0.0 mm
09:18 76.3 °F /  24.6 °C 63.1 °F /  17.3 °C 30.1 in /  1017.8 hPa ENE 2.9 mph /  4.7 km/h 2.9 mph /  4.7 km/h 64 % 0 in /  0.0 mm
09:23 77 °F /  25.0 °C 63 °F /  17.2 °C 30.1 in /  1017.8 hPa ENE 2.3 mph /  3.7 km/h 2.3 mph /  3.7 km/h 62 % 0 in /  0.0 mm
09:28 77.7 °F /  25.4 °C 63.7 °F /  17.6 °C 30.1 in /  1017.8 hPa NW 1.6 mph /  2.6 km/h   62 % 0 in /  0.0 mm
09:33 78.4 °F /  25.8 °C 63.9 °F /  17.7 °C 30.1 in /  1017.8 hPa NW 1.6 mph /  2.6 km/h 1.6 mph /  2.6 km/h 61 % 0 in /  0.0 mm
09:38 78.4 °F /  25.8 °C 63.9 °F /  17.7 °C 30.1 in /  1017.8 hPa North 1.2 mph /  1.9 km/h 1.2 mph /  1.9 km/h 61 % 0 in /  0.0 mm
09:43 78.6 °F /  25.9 °C 63.7 °F /  17.6 °C 30.1 in /  1017.8 hPa ENE 2.3 mph /  3.7 km/h 2.3 mph /  3.7 km/h 60 % 0 in /  0.0 mm
09:48 78.3 °F /  25.7 °C 62.8 °F /  17.1 °C 30.1 in /  1017.8 hPa ENE 2.3 mph /  3.7 km/h 2.3 mph /  3.7 km/h 59 % 0 in /  0.0 mm
09:53 78.8 °F /  26.0 °C 63.7 °F /  17.6 °C 30.1 in /  1017.8 hPa ENE 1.2 mph /  1.9 km/h 1.2 mph /  1.9 km/h 60 % 0 in /  0.0 mm
09:58 79.3 °F /  26.3 °C 63.9 °F /  17.7 °C 30.1 in /  1017.8 hPa SSW 2.3 mph /  3.7 km/h 2.3 mph /  3.7 km/h 59 % 0 in /  0.0 mm
10:03 80.1 °F /  26.7 °C 64.4 °F /  18.0 °C 30.1 in /  1017.8 hPa West 3.5 mph /  5.6 km/h 3.5 mph /  5.6 km/h 59 % 0 in /  0.0 mm
10:08 79.7 °F /  26.5 °C 63.7 °F /  17.6 °C 30.1 in /  1017.8 hPa SW 1.2 mph /  1.9 km/h   58 % 0 in /  0.0 mm
10:13 81 °F /  27.2 °C 64.2 °F /  17.9 °C 30.1 in /  1017.8 hPa WSW 2.3 mph /  3.7 km/h 2.3 mph /  3.7 km/h 57 % 0 in /  0.0 mm
10:18 81.3 °F /  27.4 °C 64 °F /  17.8 °C 30.1 in /  1017.8 hPa SE 2.3 mph /  3.7 km/h 2.3 mph /  3.7 km/h 56 % 0 in /  0.0 mm
10:23 82.2 °F /  27.9 °C 64.4 °F /  18.0 °C 30.1 in /  1017.8 hPa WSW 3.1 mph /  5.0 km/h 3.1 mph /  5.0 km/h 55 % 0 in /  0.0 mm
10:28 82.4 °F /  28.0 °C 64 °F /  17.8 °C 30.1 in /  1017.8 hPa SW 4.3 mph /  6.9 km/h 4.3 mph /  6.9 km/h 54 % 0 in /  0.0 mm
10:33 82.4 °F /  28.0 °C 63 °F /  17.2 °C 30.1 in /  1017.8 hPa SSE 3.5 mph /  5.6 km/h 3.5 mph /  5.6 km/h 52 % 0 in /  0.0 mm
10:38 82.6 °F /  28.1 °C 63.1 °F /  17.3 °C 30.1 in /  1017.8 hPa SSW 3.5 mph /  5.6 km/h 3.5 mph /  5.6 km/h 52 % 0 in /  0.0 mm
10:43 83.1 °F /  28.4 °C 63.1 °F /  17.3 °C 30.1 in /  1017.8 hPa South 3.5 mph /  5.6 km/h 3.5 mph /  5.6 km/h 51 % 0 in /  0.0 mm
10:48 83.7 °F /  28.7 °C 63.7 °F /  17.6 °C 30.1 in /  1017.8 hPa SSW 4.6 mph /  7.4 km/h 4.6 mph /  7.4 km/h 51 % 0 in /  0.0 mm
10:53 83.8 °F /  28.8 °C 63.9 °F /  17.7 °C 30.1 in /  1017.8 hPa South 3.5 mph /  5.6 km/h 3.8 mph /  6.1 km/h 51 % 0 in /  0.0 mm
10:58 84.6 °F /  29.2 °C 63.3 °F /  17.4 °C 30.1 in /  1017.8 hPa SSE 5.8 mph /  9.3 km/h 5.8 mph /  9.3 km/h 49 % 0 in /  0.0 mm
11:03 85.3 °F /  29.6 °C 63.3 °F /  17.4 °C 30.1 in /  1017.8 hPa WSW 5.8 mph /  9.3 km/h 5.8 mph /  9.3 km/h 48 % 0 in /  0.0 mm
11:08 86.2 °F /  30.1 °C 64.2 °F /  17.9 °C 30.1 in /  1017.8 hPa SW 2.4 mph /  3.9 km/h 2.4 mph /  3.9 km/h 48 % 0 in /  0.0 mm
11:09 86.2 °F /  30.1 °C 64.2 °F /  17.9 °C 30.1 in /  1017.8 hPa SW 2.4 mph /  3.9 km/h 2.4 mph /  3.9 km/h 48 % 0 in /  0.0 mm
11:14 86.5 °F /  30.3 °C 64.6 °F /  18.1 °C 30.1 in /  1017.8 hPa West 9.2 mph /  14.8 km/h 9.2 mph /  14.8 km/h 48 % 0 in /  0.0 mm
11:19 85.5 °F /  29.7 °C 63.5 °F /  17.5 °C 30.1 in /  1017.8 hPa SW 3.5 mph /  5.6 km/h 3.5 mph /  5.6 km/h 48 % 0 in /  0.0 mm
11:24 85.5 °F /  29.7 °C 63.5 °F /  17.5 °C 30.1 in /  1017.8 hPa WSW 6.9 mph /  11.1 km/h 6.9 mph /  11.1 km/h 48 % 0 in /  0.0 mm
11:29 86 °F /  30.0 °C 63.3 °F /  17.4 °C 30 in /  1016.8 hPa WSW 5.6 mph /  9.0 km/h 5.6 mph /  9.0 km/h 47 % 0 in /  0.0 mm
11:34 85.8 °F /  29.9 °C 62.6 °F /  17.0 °C 30 in /  1016.8 hPa SW 6.9 mph /  11.1 km/h 6.9 mph /  11.1 km/h 46 % 0 in /  0.0 mm
11:39 86.2 °F /  30.1 °C 62.2 °F /  16.8 °C 30 in /  1016.8 hPa SW 8.1 mph /  13.0 km/h 8.1 mph /  13.0 km/h 45 % 0 in /  0.0 mm
11:44 86.5 °F /  30.3 °C 62.8 °F /  17.1 °C 30.1 in /  1017.8 hPa SSW 4.6 mph /  7.4 km/h 4.6 mph /  7.4 km/h 45 % 0 in /  0.0 mm
11:49 86.9 °F /  30.5 °C 63 °F /  17.2 °C 30.1 in /  1017.8 hPa SW 8.1 mph /  13.0 km/h 8.1 mph /  13.0 km/h 45 % 0 in /  0.0 mm
11:54 87.3 °F /  30.7 °C 63.3 °F /  17.4 °C 30.1 in /  1017.8 hPa WNW 3.5 mph /  5.6 km/h 3.5 mph /  5.6 km/h 45 % 0 in /  0.0 mm
11:59 87.4 °F /  30.8 °C 63.5 °F /  17.5 °C 30.1 in /  1017.8 hPa SSW 3.5 mph /  5.6 km/h 3.8 mph /  6.1 km/h 45 % 0 in /  0.0 mm
12:04 88.3 °F /  31.3 °C 63.7 °F /  17.6 °C 30.1 in /  1017.8 hPa SSW 2.3 mph /  3.7 km/h 2.4 mph /  3.9 km/h 44 % 0 in /  0.0 mm
12:09 88.3 °F /  31.3 °C 63.7 °F /  17.6 °C 30.1 in /  1017.8 hPa SW 4.6 mph /  7.4 km/h 4.6 mph /  7.4 km/h 44 % 0 in /  0.0 mm
12:14 89.2 °F /  31.8 °C 64.6 °F /  18.1 °C 30.1 in /  1017.8 hPa SW 3.5 mph /  5.6 km/h 3.5 mph /  5.6 km/h 44 % 0 in /  0.0 mm
12:19 89.4 °F /  31.9 °C 64 °F /  17.8 °C 30.1 in /  1017.8 hPa South 3.5 mph /  5.6 km/h 3.5 mph /  5.6 km/h 43 % 0 in /  0.0 mm
12:24 90.1 °F /  32.3 °C 64.6 °F /  18.1 °C 30.1 in /  1017.8 hPa SSE 3.8 mph /  6.1 km/h 3.8 mph /  6.1 km/h 43 % 0 in /  0.0 mm
12:29 90.9 °F /  32.7 °C 65.3 °F /  18.5 °C 30 in /  1016.8 hPa West 3.3 mph /  5.3 km/h 3.3 mph /  5.3 km/h 43 % 0 in /  0.0 mm
12:34 90.3 °F /  32.4 °C 64 °F /  17.8 °C 30 in /  1016.8 hPa South 5.8 mph /  9.3 km/h 5.8 mph /  9.3 km/h 42 % 0 in /  0.0 mm
12:39 90.7 °F /  32.6 °C 64.4 °F /  18.0 °C 30 in /  1016.8 hPa South 3.5 mph /  5.6 km/h 3.5 mph /  5.6 km/h 42 % 0 in /  0.0 mm
12:44 90.1 °F /  32.3 °C 63.3 °F /  17.4 °C 30 in /  1016.8 hPa South 3.5 mph /  5.6 km/h 3.5 mph /  5.6 km/h 41 % 0 in /  0.0 mm
12:49 92.1 °F /  33.4 °C 64.2 °F /  17.9 °C 30 in /  1016.8 hPa WSW 2.3 mph /  3.7 km/h 2.3 mph /  3.7 km/h 40 % 0 in /  0.0 mm
12:54 92.3 °F /  33.5 °C 64.6 °F /  18.1 °C 30 in /  1016.8 hPa SSE 4.6 mph /  7.4 km/h 4.6 mph /  7.4 km/h 40 % 0 in /  0.0 mm
12:59 92.1 °F /  33.4 °C 63.7 °F /  17.6 °C 30 in /  1016.8 hPa South 3.5 mph /  5.6 km/h 3.5 mph /  5.6 km/h 39 % 0 in /  0.0 mm
13:04 91.8 °F /  33.2 °C 62.4 °F /  16.9 °C 30 in /  1016.8 hPa South 4.6 mph /  7.4 km/h 4.6 mph /  7.4 km/h 38 % 0 in /  0.0 mm
13:09 91.8 °F /  33.2 °C 63.3 °F /  17.4 °C 30 in /  1016.8 hPa SW 4.9 mph /  7.9 km/h 5.6 mph /  9.0 km/h 39 % 0 in /  0.0 mm
13:14 91.4 °F /  33.0 °C 63 °F /  17.2 °C 30 in /  1016.8 hPa WSW 5.8 mph /  9.3 km/h 5.8 mph /  9.3 km/h 39 % 0 in /  0.0 mm
13:19 92.5 °F /  33.6 °C 62.4 °F /  16.9 °C 30 in /  1016.8 hPa SE 3.5 mph /  5.6 km/h 3.5 mph /  5.6 km/h 37 % 0 in /  0.0 mm
13:24 92.7 °F /  33.7 °C 63.3 °F /  17.4 °C 30 in /  1016.8 hPa ESE 4.6 mph /  7.4 km/h 4.6 mph /  7.4 km/h 38 % 0 in /  0.0 mm
13:29 93.2 °F /  34.0 °C 63.1 °F /  17.3 °C 30 in /  1016.8 hPa SW 4.6 mph /  7.4 km/h 4.6 mph /  7.4 km/h 37 % 0 in /  0.0 mm
13:34 93.4 °F /  34.1 °C 63.1 °F /  17.3 °C 30 in /  1016.8 hPa SSW 5.8 mph /  9.3 km/h 5.8 mph /  9.3 km/h 37 % 0 in /  0.0 mm
13:39 92.8 °F /  33.8 °C 62.8 °F /  17.1 °C 30 in /  1016.8 hPa SW 8.1 mph /  13.0 km/h 8.1 mph /  13.0 km/h 37 % 0 in /  0.0 mm
13:44 92.3 °F /  33.5 °C 62.2 °F /  16.8 °C 30 in /  1016.8 hPa ENE 5.8 mph /  9.3 km/h 5.8 mph /  9.3 km/h 37 % 0 in /  0.0 mm
13:49 93.6 °F /  34.2 °C 63.3 °F /  17.4 °C 30 in /  1016.8 hPa SSW 6 mph /  9.7 km/h 6 mph /  9.7 km/h 37 % 0 in /  0.0 mm
13:54 94.3 °F /  34.6 °C 63.1 °F /  17.3 °C 30 in /  1016.8 hPa SSW 3.5 mph /  5.6 km/h 3.5 mph /  5.6 km/h 36 % 0 in /  0.0 mm
13:59 93.9 °F /  34.4 °C 63.7 °F /  17.6 °C 30 in /  1015.8 hPa SW 4.6 mph /  7.4 km/h 5.4 mph /  8.7 km/h 37 % 0 in /  0.0 mm
14:04 94.1 °F /  34.5 °C 63.1 °F /  17.3 °C 30 in /  1015.8 hPa SW 5.6 mph /  9.0 km/h 5.6 mph /  9.0 km/h 36 % 0 in /  0.0 mm
14:09 93.9 °F /  34.4 °C 63 °F /  17.2 °C 30 in /  1015.8 hPa WSW 5.8 mph /  9.3 km/h 5.8 mph /  9.3 km/h 36 % 0 in /  0.0 mm
14:14 94.5 °F /  34.7 °C 63.3 °F /  17.4 °C 30 in /  1015.8 hPa South 8.1 mph /  13.0 km/h 8.1 mph /  13.0 km/h 36 % 0 in /  0.0 mm
14:19 93.6 °F /  34.2 °C 62.6 °F /  17.0 °C 30 in /  1015.8 hPa SW 8.1 mph /  13.0 km/h 8.1 mph /  13.0 km/h 36 % 0 in /  0.0 mm
14:24 93.7 °F /  34.3 °C 62.8 °F /  17.1 °C 30 in /  1015.8 hPa SW 5.8 mph /  9.3 km/h 5.8 mph /  9.3 km/h 36 % 0 in /  0.0 mm
14:29 93.6 °F /  34.2 °C 61.9 °F /  16.6 °C 30 in /  1015.8 hPa WSW 6.9 mph /  11.1 km/h 6.9 mph /  11.1 km/h 35 % 0 in /  0.0 mm
14:34 94.1 °F /  34.5 °C 62.2 °F /  16.8 °C 30 in /  1015.8 hPa SSE 10.5 mph /  16.9 km/h 10.5 mph /  16.9 km/h 35 % 0 in /  0.0 mm
14:39 93.6 °F /  34.2 °C 61 °F /  16.1 °C 30 in /  1015.8 hPa SW 6.9 mph /  11.1 km/h 6.9 mph /  11.1 km/h 34 % 0 in /  0.0 mm
14:44 94.1 °F /  34.5 °C 62.2 °F /  16.8 °C 30 in /  1015.8 hPa SW 5.8 mph /  9.3 km/h 5.8 mph /  9.3 km/h 35 % 0 in /  0.0 mm
14:49 93.7 °F /  34.3 °C 61.2 °F /  16.2 °C 30 in /  1015.8 hPa WSW 11.5 mph /  18.5 km/h 11.5 mph /  18.5 km/h 34 % 0 in /  0.0 mm
14:54 93.4 °F /  34.1 °C 60.8 °F /  16.0 °C 30 in /  1015.8 hPa SSW 5.8 mph /  9.3 km/h 5.8 mph /  9.3 km/h 34 % 0 in /  0.0 mm
14:59 93.4 °F /  34.1 °C 60.8 °F /  16.0 °C 30 in /  1015.8 hPa WSW 8.1 mph /  13.0 km/h 8.1 mph /  13.0 km/h 34 % 0 in /  0.0 mm
15:01 93.4 °F /  34.1 °C 60.8 °F /  16.0 °C 30 in /  1015.8 hPa WSW 8.1 mph /  13.0 km/h 8.1 mph /  13.0 km/h 34 % 0 in /  0.0 mm
15:06 92.8 °F /  33.8 °C 61.2 °F /  16.2 °C 30 in /  1015.8 hPa South 5.8 mph /  9.3 km/h 5.8 mph /  9.3 km/h 35 % 0 in /  0.0 mm
15:11 92.8 °F /  33.8 °C 61.2 °F /  16.2 °C 30 in /  1015.8 hPa SW 5.8 mph /  9.3 km/h 5.8 mph /  9.3 km/h 35 % 0 in /  0.0 mm
15:16 92.3 °F /  33.5 °C 60.6 °F /  15.9 °C 30 in /  1014.8 hPa SW 10.4 mph /  16.7 km/h 10.4 mph /  16.7 km/h 35 % 0 in /  0.0 mm
15:21 92.3 °F /  33.5 °C 60.6 °F /  15.9 °C 30 in /  1014.8 hPa SW 12.7 mph /  20.4 km/h 12.7 mph /  20.4 km/h 35 % 0 in /  0.0 mm
15:26 90.9 °F /  32.7 °C 60.3 °F /  15.7 °C 30 in /  1014.8 hPa SSW 9.2 mph /  14.8 km/h 9.2 mph /  14.8 km/h 36 % 0 in /  0.0 mm
15:31 91.9 °F /  33.3 °C 61.2 °F /  16.2 °C 30 in /  1015.8 hPa SW 13 mph /  20.9 km/h 13 mph /  20.9 km/h 36 % 0 in /  0.0 mm
15:36 91.2 °F /  32.9 °C 60.4 °F /  15.8 °C 30 in /  1015.8 hPa WNW 9.2 mph /  14.8 km/h 9.2 mph /  14.8 km/h 36 % 0 in /  0.0 mm
15:41 91.4 °F /  33.0 °C 60.6 °F /  15.9 °C 30 in /  1015.8 hPa SSW 6.9 mph /  11.1 km/h 6.9 mph /  11.1 km/h 36 % 0 in /  0.0 mm
15:46 91 °F /  32.8 °C 61.2 °F /  16.2 °C 30 in /  1014.8 hPa WSW 8.1 mph /  13.0 km/h 8.1 mph /  13.0 km/h 37 % 0 in /  0.0 mm
15:51 90.7 °F /  32.6 °C 60.8 °F /  16.0 °C 30 in /  1014.8 hPa SW 11.5 mph /  18.5 km/h 11.5 mph /  18.5 km/h 37 % 0 in /  0.0 mm
15:56 90 °F /  32.2 °C 60.3 °F /  15.7 °C 30 in /  1014.8 hPa South 9.2 mph /  14.8 km/h 9.2 mph /  14.8 km/h 37 % 0 in /  0.0 mm
16:01 89.2 °F /  31.8 °C 60.3 °F /  15.7 °C 30 in /  1014.8 hPa South 11.5 mph /  18.5 km/h 11.5 mph /  18.5 km/h 38 % 0 in /  0.0 mm
16:06 89.1 °F /  31.7 °C 60.1 °F /  15.6 °C 30 in /  1014.8 hPa SW 8.1 mph /  13.0 km/h 8.1 mph /  13.0 km/h 38 % 0 in /  0.0 mm
16:11 89.6 °F /  32.0 °C 60.6 °F /  15.9 °C 30 in /  1014.8 hPa WSW 11.5 mph /  18.5 km/h 11.5 mph /  18.5 km/h 38 % 0 in /  0.0 mm
16:16 89.4 °F /  31.9 °C 60.4 °F /  15.8 °C 30 in /  1015.8 hPa SSE 6.9 mph /  11.1 km/h 6.9 mph /  11.1 km/h 38 % 0 in /  0.0 mm
16:21 89.8 °F /  32.1 °C 60.8 °F /  16.0 °C 30 in /  1015.8 hPa South 6.9 mph /  11.1 km/h 6.9 mph /  11.1 km/h 38 % 0 in /  0.0 mm
16:26 88.9 °F /  31.6 °C 60.6 °F /  15.9 °C 30 in /  1015.8 hPa SSW 10.4 mph /  16.7 km/h 10.4 mph /  16.7 km/h 39 % 0 in /  0.0 mm
16:31 89.8 °F /  32.1 °C 61.5 °F /  16.4 °C 30 in /  1015.8 hPa SSW 8.1 mph /  13.0 km/h 8.1 mph /  13.0 km/h 39 % 0 in /  0.0 mm
16:36 89.6 °F /  32.0 °C 61.3 °F /  16.3 °C 30 in /  1015.8 hPa SSE 10.2 mph /  16.4 km/h 10.2 mph /  16.4 km/h 39 % 0 in /  0.0 mm
16:41 89.8 °F /  32.1 °C 61.5 °F /  16.4 °C 30 in /  1015.8 hPa SSE 3.5 mph /  5.6 km/h 3.5 mph /  5.6 km/h 39 % 0 in /  0.0 mm
16:46 90.1 °F /  32.3 °C 61.9 °F /  16.6 °C 30 in /  1014.8 hPa SSW 9.2 mph /  14.8 km/h 9.2 mph /  14.8 km/h 39 % 0 in /  0.0 mm
16:51 89.4 °F /  31.9 °C 61.2 °F /  16.2 °C 30 in /  1014.8 hPa WSW 5.8 mph /  9.3 km/h 5.8 mph /  9.3 km/h 39 % 0 in /  0.0 mm
16:56 89.6 °F /  32.0 °C 62.1 °F /  16.7 °C 30 in /  1014.8 hPa WSW 8.1 mph /  13.0 km/h 8.1 mph /  13.0 km/h 40 % 0 in /  0.0 mm
17:01 89.1 °F /  31.7 °C 61.5 °F /  16.4 °C 30 in /  1015.8 hPa SW 5.8 mph /  9.3 km/h 5.8 mph /  9.3 km/h 40 % 0 in /  0.0 mm
17:06 88.9 °F /  31.6 °C 61.3 °F /  16.3 °C 30 in /  1015.8 hPa SW 6.9 mph /  11.1 km/h 6.9 mph /  11.1 km/h 40 % 0 in /  0.0 mm
17:11 88.9 °F /  31.6 °C 62.1 °F /  16.7 °C 30 in /  1015.8 hPa SW 7.6 mph /  12.2 km/h 7.6 mph /  12.2 km/h 41 % 0 in /  0.0 mm
17:16 89.2 °F /  31.8 °C 62.4 °F /  16.9 °C 30 in /  1014.8 hPa South 10.4 mph /  16.7 km/h 10.4 mph /  16.7 km/h 41 % 0 in /  0.0 mm
17:21 89.2 °F /  31.8 °C 62.4 °F /  16.9 °C 30 in /  1014.8 hPa WSW 8.1 mph /  13.0 km/h 8.1 mph /  13.0 km/h 41 % 0 in /  0.0 mm
17:26 88.7 °F /  31.5 °C 62.1 °F /  16.7 °C 30 in /  1014.8 hPa SW 9.2 mph /  14.8 km/h 9.2 mph /  14.8 km/h 41 % 0 in /  0.0 mm
17:31 88.9 °F /  31.6 °C 62.1 °F /  16.7 °C 30 in /  1015.8 hPa WSW 7.8 mph /  12.6 km/h 7.8 mph /  12.6 km/h 41 % 0 in /  0.0 mm
17:36 88.7 °F /  31.5 °C 62.1 °F /  16.7 °C 30 in /  1015.8 hPa WSW 6.9 mph /  11.1 km/h 6.9 mph /  11.1 km/h 41 % 0 in /  0.0 mm
17:41 88.9 °F /  31.6 °C 62.1 °F /  16.7 °C 30 in /  1015.8 hPa SSW 5.8 mph /  9.3 km/h 5.8 mph /  9.3 km/h 41 % 0 in /  0.0 mm
17:46 88 °F /  31.1 °C 62.1 °F /  16.7 °C 30 in /  1015.8 hPa South 7.6 mph /  12.2 km/h 7.6 mph /  12.2 km/h 42 % 0 in /  0.0 mm
17:51 88.2 °F /  31.2 °C 62.2 °F /  16.8 °C 30 in /  1015.8 hPa WSW 6.9 mph /  11.1 km/h 6.9 mph /  11.1 km/h 42 % 0 in /  0.0 mm
17:56 88.2 °F /  31.2 °C 62.2 °F /  16.8 °C 30 in /  1015.8 hPa WSW 5.8 mph /  9.3 km/h 5.8 mph /  9.3 km/h 42 % 0 in /  0.0 mm
18:01 88.3 °F /  31.3 °C 62.2 °F /  16.8 °C 30 in /  1015.8 hPa SW 6.9 mph /  11.1 km/h 6.9 mph /  11.1 km/h 42 % 0 in /  0.0 mm
18:06 88.7 °F /  31.5 °C 62.8 °F /  17.1 °C 30 in /  1015.8 hPa SSW 4.3 mph /  6.9 km/h 4.3 mph /  6.9 km/h 42 % 0 in /  0.0 mm
18:11 88.5 °F /  31.4 °C 62.4 °F /  16.9 °C 30 in /  1015.8 hPa SW 6.9 mph /  11.1 km/h 6.9 mph /  11.1 km/h 42 % 0 in /  0.0 mm
18:16 87.6 °F /  30.9 °C 62.4 °F /  16.9 °C 30 in /  1014.8 hPa SW 6.9 mph /  11.1 km/h 6.9 mph /  11.1 km/h 43 % 0 in /  0.0 mm
18:21 88.2 °F /  31.2 °C 62.2 °F /  16.8 °C 30 in /  1014.8 hPa SW 9.2 mph /  14.8 km/h 9.2 mph /  14.8 km/h 42 % 0 in /  0.0 mm
18:26 86.9 °F /  30.5 °C 61.7 °F /  16.5 °C 30 in /  1014.8 hPa SW 10.4 mph /  16.7 km/h 10.4 mph /  16.7 km/h 43 % 0 in /  0.0 mm
18:31 86.7 °F /  30.4 °C 62.2 °F /  16.8 °C 30 in /  1015.8 hPa SW 5.8 mph /  9.3 km/h 5.8 mph /  9.3 km/h 44 % 0 in /  0.0 mm
18:36 86.7 °F /  30.4 °C 62.2 °F /  16.8 °C 30 in /  1015.8 hPa SW 6 mph /  9.7 km/h 6 mph /  9.7 km/h 44 % 0 in /  0.0 mm
18:41 86.4 °F /  30.2 °C 61.9 °F /  16.6 °C 30 in /  1015.8 hPa West 5.8 mph /  9.3 km/h 5.8 mph /  9.3 km/h 44 % 0 in /  0.0 mm
18:46 86.5 °F /  30.3 °C 62.1 °F /  16.7 °C 30 in /  1015.8 hPa SW 8.1 mph /  13.0 km/h 8.1 mph /  13.0 km/h 44 % 0 in /  0.0 mm
18:51 85.8 °F /  29.9 °C 62.1 °F /  16.7 °C 30 in /  1015.8 hPa SSW 5.9 mph /  9.5 km/h 5.9 mph /  9.5 km/h 45 % 0 in /  0.0 mm
18:56 85.6 °F /  29.8 °C 61.9 °F /  16.6 °C 30 in /  1015.8 hPa SW 6.2 mph /  10.0 km/h 6.2 mph /  10.0 km/h 45 % 0 in /  0.0 mm
19:01 85.5 °F /  29.7 °C 61.7 °F /  16.5 °C 30 in /  1015.8 hPa WSW 5.8 mph /  9.3 km/h 5.8 mph /  9.3 km/h 45 % 0 in /  0.0 mm
19:06 85.3 °F /  29.6 °C 62.2 °F /  16.8 °C 30 in /  1015.8 hPa SSW 6.9 mph /  11.1 km/h 6.9 mph /  11.1 km/h 46 % 0 in /  0.0 mm
19:11 84.9 °F /  29.4 °C 61.9 °F /  16.6 °C 30 in /  1015.8 hPa SW 9.2 mph /  14.8 km/h 9.2 mph /  14.8 km/h 46 % 0 in /  0.0 mm
19:16 84.4 °F /  29.1 °C 61.9 °F /  16.6 °C 30 in /  1015.8 hPa SSW 6.9 mph /  11.1 km/h 6.9 mph /  11.1 km/h 47 % 0 in /  0.0 mm
19:21 84.2 °F /  29.0 °C 61.9 °F /  16.6 °C 30 in /  1015.8 hPa SW 8.1 mph /  13.0 km/h 8.1 mph /  13.0 km/h 47 % 0 in /  0.0 mm
19:26 83.8 °F /  28.8 °C 62.1 °F /  16.7 °C 30 in /  1015.8 hPa SSW 4.9 mph /  7.9 km/h 4.9 mph /  7.9 km/h 48 % 0 in /  0.0 mm
19:31 83.8 °F /  28.8 °C 62.1 °F /  16.7 °C 30 in /  1015.8 hPa WSW 5.9 mph /  9.5 km/h 5.9 mph /  9.5 km/h 48 % 0 in /  0.0 mm
19:36 83.3 °F /  28.5 °C 62.1 °F /  16.7 °C 30 in /  1015.8 hPa SSW 6.9 mph /  11.1 km/h 6.9 mph /  11.1 km/h 49 % 0 in /  0.0 mm
19:42 82.9 °F /  28.3 °C 61.9 °F /  16.6 °C 30 in /  1015.8 hPa SSW 4.7 mph /  7.6 km/h 4.7 mph /  7.6 km/h 49 % 0 in /  0.0 mm
19:47 82.8 °F /  28.2 °C 61.5 °F /  16.4 °C 30 in /  1015.8 hPa WSW 4.6 mph /  7.4 km/h 4.6 mph /  7.4 km/h 49 % 0 in /  0.0 mm
19:52 82.6 °F /  28.1 °C 61.5 °F /  16.4 °C 30 in /  1015.8 hPa WSW 5.8 mph /  9.3 km/h 5.8 mph /  9.3 km/h 49 % 0 in /  0.0 mm
19:53 82.6 °F /  28.1 °C 61.5 °F /  16.4 °C 30 in /  1015.8 hPa WSW 5.6 mph /  9.0 km/h 5.6 mph /  9.0 km/h 49 % 0 in /  0.0 mm
19:58 82.2 °F /  27.9 °C 61.7 °F /  16.5 °C 30 in /  1015.8 hPa SW 5.8 mph /  9.3 km/h 5.8 mph /  9.3 km/h 50 % 0 in /  0.0 mm
20:03 81.9 °F /  27.7 °C 61.3 °F /  16.3 °C 30 in /  1015.8 hPa SSW 6.9 mph /  11.1 km/h 6.9 mph /  11.1 km/h 50 % 0 in /  0.0 mm
20:08 81.5 °F /  27.5 °C 61.5 °F /  16.4 °C 30 in /  1015.8 hPa SW 5.8 mph /  9.3 km/h 5.8 mph /  9.3 km/h 51 % 0 in /  0.0 mm
20:13 81.3 °F /  27.4 °C 61.5 °F /  16.4 °C 30 in /  1014.8 hPa WSW 6 mph /  9.7 km/h 6 mph /  9.7 km/h 51 % 0 in /  0.0 mm
20:18 81 °F /  27.2 °C 61.2 °F /  16.2 °C 30 in /  1014.8 hPa SW 5.9 mph /  9.5 km/h 5.9 mph /  9.5 km/h 51 % 0 in /  0.0 mm
20:23 80.6 °F /  27.0 °C 61.3 °F /  16.3 °C 30 in /  1014.8 hPa South 5.8 mph /  9.3 km/h 5.8 mph /  9.3 km/h 52 % 0 in /  0.0 mm
20:28 80.4 °F /  26.9 °C 61.7 °F /  16.5 °C 30 in /  1015.8 hPa WSW 3.5 mph /  5.6 km/h 3.5 mph /  5.6 km/h 53 % 0 in /  0.0 mm
20:33 80.2 °F /  26.8 °C 61.5 °F /  16.4 °C 30 in /  1015.8 hPa SW 4.6 mph /  7.4 km/h 4.6 mph /  7.4 km/h 53 % 0 in /  0.0 mm
20:38 80.1 °F /  26.7 °C 61.3 °F /  16.3 °C 30 in /  1015.8 hPa SW 4.6 mph /  7.4 km/h 4.6 mph /  7.4 km/h 53 % 0 in /  0.0 mm
20:39 80.1 °F /  26.7 °C 61.3 °F /  16.3 °C 30 in /  1015.8 hPa SW 4.6 mph /  7.4 km/h 4.6 mph /  7.4 km/h 53 % 0 in /  0.0 mm
20:44 79.9 °F /  26.6 °C 61.2 °F /  16.2 °C 30 in /  1015.8 hPa SW 3.1 mph /  5.0 km/h 3.1 mph /  5.0 km/h 53 % 0 in /  0.0 mm
20:49 79.5 °F /  26.4 °C 61.3 °F /  16.3 °C 30 in /  1015.8 hPa SW 3.5 mph /  5.6 km/h 3.5 mph /  5.6 km/h 54 % 0 in /  0.0 mm
20:54 79.3 °F /  26.3 °C 61.2 °F /  16.2 °C 30 in /  1015.8 hPa SW 2.3 mph /  3.7 km/h 2.3 mph /  3.7 km/h 54 % 0 in /  0.0 mm
20:59 79 °F /  26.1 °C 61 °F /  16.1 °C 30 in /  1015.8 hPa SSW 4.6 mph /  7.4 km/h 4.6 mph /  7.4 km/h 54 % 0 in /  0.0 mm
21:04 78.8 °F /  26.0 °C 60.6 °F /  15.9 °C 30 in /  1015.8 hPa WSW 3.5 mph /  5.6 km/h 3.5 mph /  5.6 km/h 54 % 0 in /  0.0 mm
21:09 78.6 °F /  25.9 °C 60.6 °F /  15.9 °C 30 in /  1015.8 hPa SW 3.1 mph /  5.0 km/h 3.1 mph /  5.0 km/h 54 % 0 in /  0.0 mm
21:14 78.6 °F /  25.9 °C 61.2 °F /  16.2 °C 30 in /  1016.8 hPa SW 2.3 mph /  3.7 km/h 2.3 mph /  3.7 km/h 55 % 0 in /  0.0 mm
21:19 78.3 °F /  25.7 °C 60.8 °F /  16.0 °C 30 in /  1016.8 hPa SW 2.3 mph /  3.7 km/h 2.3 mph /  3.7 km/h 55 % 0 in /  0.0 mm
21:24 78.1 °F /  25.6 °C 61.2 °F /  16.2 °C 30 in /  1016.8 hPa SSW 2.3 mph /  3.7 km/h 2.3 mph /  3.7 km/h 56 % 0 in /  0.0 mm
21:29 78.1 °F /  25.6 °C 61.2 °F /  16.2 °C 30 in /  1016.8 hPa SW 2.3 mph /  3.7 km/h   56 % 0 in /  0.0 mm
21:34 77.9 °F /  25.5 °C 61 °F /  16.1 °C 30 in /  1016.8 hPa SW 2.3 mph /  3.7 km/h 2.3 mph /  3.7 km/h 56 % 0 in /  0.0 mm
21:39 77.5 °F /  25.3 °C 60.6 °F /  15.9 °C 30 in /  1016.8 hPa SW 3.6 mph /  5.8 km/h 3.6 mph /  5.8 km/h 56 % 0 in /  0.0 mm
21:44 77.5 °F /  25.3 °C 61.2 °F /  16.2 °C 30 in /  1016.8 hPa SW 2.3 mph /  3.7 km/h 2.3 mph /  3.7 km/h 57 % 0 in /  0.0 mm
21:49 77.4 °F /  25.2 °C 61 °F /  16.1 °C 30 in /  1016.8 hPa WSW 2.3 mph /  3.7 km/h 2.3 mph /  3.7 km/h 57 % 0 in /  0.0 mm
21:54 77.2 °F /  25.1 °C 61.3 °F /  16.3 °C 30 in /  1016.8 hPa WSW 2.3 mph /  3.7 km/h 2.3 mph /  3.7 km/h 58 % 0 in /  0.0 mm
21:59 77 °F /  25.0 °C 61.2 °F /  16.2 °C 30 in /  1016.8 hPa WSW 2.3 mph /  3.7 km/h 2.3 mph /  3.7 km/h 58 % 0 in /  0.0 mm
22:04 77 °F /  25.0 °C 61.5 °F /  16.4 °C 30 in /  1016.8 hPa WSW 2.3 mph /  3.7 km/h 2.3 mph /  3.7 km/h 59 % 0 in /  0.0 mm
22:09 76.8 °F /  24.9 °C 61.9 °F /  16.6 °C 30 in /  1016.8 hPa WSW 2.3 mph /  3.7 km/h 2.3 mph /  3.7 km/h 60 % 0 in /  0.0 mm
22:14 76.8 °F /  24.9 °C 61.9 °F /  16.6 °C 30 in /  1016.8 hPa WSW 2.4 mph /  3.9 km/h 2.4 mph /  3.9 km/h 60 % 0 in /  0.0 mm
22:19 76.6 °F /  24.8 °C 62.2 °F /  16.8 °C 30 in /  1016.8 hPa WSW 2.3 mph /  3.7 km/h 2.3 mph /  3.7 km/h 61 % 0 in /  0.0 mm
22:24 76.5 °F /  24.7 °C 62.1 °F /  16.7 °C 30 in /  1016.8 hPa WSW 3.5 mph /  5.6 km/h 3.5 mph /  5.6 km/h 61 % 0 in /  0.0 mm
22:29 76.5 °F /  24.7 °C 62.4 °F /  16.9 °C 30.1 in /  1017.8 hPa WSW 2.3 mph /  3.7 km/h 2.3 mph /  3.7 km/h 62 % 0 in /  0.0 mm
22:34 76.3 °F /  24.6 °C 62.2 °F /  16.8 °C 30.1 in /  1017.8 hPa SW 2.3 mph /  3.7 km/h 2.3 mph /  3.7 km/h 62 % 0 in /  0.0 mm
22:39 76.1 °F /  24.5 °C 62.6 °F /  17.0 °C 30.1 in /  1017.8 hPa WSW 1.4 mph /  2.3 km/h 1.4 mph /  2.3 km/h 63 % 0 in /  0.0 mm
22:44 75.9 °F /  24.4 °C 62.4 °F /  16.9 °C 30 in /  1016.8 hPa West 2.4 mph /  3.9 km/h 2.4 mph /  3.9 km/h 63 % 0 in /  0.0 mm
22:49 75.9 °F /  24.4 °C 62.4 °F /  16.9 °C 30 in /  1016.8 hPa West 2.3 mph /  3.7 km/h 2.3 mph /  3.7 km/h 63 % 0 in /  0.0 mm
22:54 75.7 °F /  24.3 °C 62.8 °F /  17.1 °C 30 in /  1016.8 hPa West 2.3 mph /  3.7 km/h 2.3 mph /  3.7 km/h 64 % 0 in /  0.0 mm
22:59 75.7 °F /  24.3 °C 62.8 °F /  17.1 °C 30.1 in /  1017.8 hPa West 2.3 mph /  3.7 km/h 2.3 mph /  3.7 km/h 64 % 0 in /  0.0 mm
23:04 75.6 °F /  24.2 °C 62.4 °F /  16.9 °C 30.1 in /  1017.8 hPa West 2.3 mph /  3.7 km/h 2.3 mph /  3.7 km/h 64 % 0 in /  0.0 mm
23:09 75.4 °F /  24.1 °C 62.8 °F /  17.1 °C 30.1 in /  1017.8 hPa SW 2.3 mph /  3.7 km/h 2.3 mph /  3.7 km/h 65 % 0 in /  0.0 mm
23:14 75.4 °F /  24.1 °C 62.8 °F /  17.1 °C 30.1 in /  1017.8 hPa WNW 2.3 mph /  3.7 km/h 2.3 mph /  3.7 km/h 65 % 0 in /  0.0 mm
23:19 75.2 °F /  24.0 °C 63.1 °F /  17.3 °C 30.1 in /  1017.8 hPa WSW 2.3 mph /  3.7 km/h 2.3 mph /  3.7 km/h 66 % 0 in /  0.0 mm
23:24 75.2 °F /  24.0 °C 63.1 °F /  17.3 °C 30.1 in /  1017.8 hPa NW 1.2 mph /  1.9 km/h   66 % 0 in /  0.0 mm
23:29 75.2 °F /  24.0 °C 63.1 °F /  17.3 °C 30 in /  1016.8 hPa WSW 2.6 mph /  4.2 km/h 2.6 mph /  4.2 km/h 66 % 0 in /  0.0 mm
23:34 75 °F /  23.9 °C 63.7 °F /  17.6 °C 30 in /  1016.8 hPa Calm     68 % 0 in /  0.0 mm
23:39 75 °F /  23.9 °C 63.7 °F /  17.6 °C 30 in /  1016.8 hPa Calm     68 % 0 in /  0.0 mm
23:44 74.8 °F /  23.8 °C 63.7 °F /  17.6 °C 30.1 in /  1017.8 hPa West 1.2 mph /  1.9 km/h 1.4 mph /  2.3 km/h 68 % 0 in /  0.0 mm
23:49 74.8 °F /  23.8 °C 63.7 °F /  17.6 °C 30.1 in /  1017.8 hPa WSW 1.2 mph /  1.9 km/h   68 % 0 in /  0.0 mm
23:54 74.7 °F /  23.7 °C 63.9 °F /  17.7 °C 30.1 in /  1017.8 hPa Calm     69 % 0 in /  0.0 mm
23:59 74.7 °F /  23.7 °C 63.9 °F /  17.7 °C 30 in /  1016.8 hPa WSW 2.3 mph /  3.7 km/h 2.3 mph /  3.7 km/h 69 % 0 in /  0.0 mm
Meteo Sesrovires
Elogis d' Weather Underground - 4 mb

Guio original per  Jim McMurry - jmcmurry@mwt.net Adaptat per a la plantilla per  Wim van der Kuil - Leuven-Template.eu

Trobareu la nostra informacio del temps tambe a:

Weather Underground

AWEKAS